Time;durP1;ratioP1;P1;durP2;ratioP2;P2;SDS_P1;SDS_P2;PMS_P1;PMS_P2;Temp;Humidity;BMP_temperature;BMP_pressure;BME280_temperature;BME280_humidity;BME280_pressure;Samples;Min_cycle;Max_cycle;Signal;HPM_P1;HPM_P2
2024/01/02 00:00:22;;;;;;;1.60;1.10;;;8.30;98.20;;;;;;6122112;23;20444;-78
2024/01/02 00:02:49;;;;;;;1.60;1.20;;;8.30;98.20;;;;;;6105682;23;20450;-78
2024/01/02 00:05:16;;;;;;;1.53;1.20;;;8.30;98.20;;;;;;6121047;23;20445;-78
2024/01/02 00:07:42;;;;;;;1.57;1.20;;;8.30;98.20;;;;;;6106430;23;20986;-78
2024/01/02 00:10:09;;;;;;;1.60;1.20;;;8.30;98.20;;;;;;6131686;23;20734;-78
2024/01/02 00:12:36;;;;;;;1.60;1.20;;;8.30;98.20;;;;;;6106542;23;20461;-78
2024/01/02 00:15:06;;;;;;;1.53;1.10;;;8.30;98.20;;;;;;6120884;23;20437;-78
2024/01/02 00:17:32;;;;;;;1.50;1.20;;;8.30;98.20;;;;;;6106044;23;20494;-77
2024/01/02 00:19:59;;;;;;;1.60;1.20;;;8.30;98.20;;;;;;6121508;23;20421;-78
2024/01/02 00:22:26;;;;;;;1.57;1.20;;;8.20;98.20;;;;;;6107054;23;20832;-79
2024/01/02 00:24:53;;;;;;;1.53;1.20;;;8.20;98.20;;;;;;6120213;23;20452;-80
2024/01/02 00:27:20;;;;;;;1.57;1.10;;;8.20;98.20;;;;;;6106594;23;20572;-78
2024/01/02 00:29:47;;;;;;;1.57;1.10;;;8.20;98.20;;;;;;6120933;23;20504;-78
2024/01/02 00:32:15;;;;;;;1.53;1.20;;;8.20;98.20;;;;;;6105376;23;20553;-78
2024/01/02 00:34:42;;;;;;;1.60;1.20;;;8.20;98.20;;;;;;6119515;23;20525;-78
2024/01/02 00:37:09;;;;;;;1.60;1.20;;;8.20;98.20;;;;;;6104483;23;20479;-78
2024/01/02 00:39:35;;;;;;;1.60;1.20;;;8.20;98.20;;;;;;6119549;23;20430;-78
2024/01/02 00:42:02;;;;;;;1.60;1.10;;;8.20;98.20;;;;;;6104965;23;20449;-78
2024/01/02 00:44:29;;;;;;;1.60;1.20;;;8.20;98.20;;;;;;6119862;23;20764;-78
2024/01/02 00:46:56;;;;;;;1.57;1.20;;;8.20;98.20;;;;;;6105146;23;20456;-79
2024/01/02 00:49:24;;;;;;;1.60;1.20;;;8.10;98.20;;;;;;6119937;23;20418;-78
2024/01/02 00:51:50;;;;;;;1.60;1.10;;;8.10;98.20;;;;;;6105078;23;20861;-79
2024/01/02 00:54:17;;;;;;;1.60;1.30;;;8.10;98.20;;;;;;6119344;23;20451;-79
2024/01/02 00:56:44;;;;;;;1.57;1.20;;;8.10;98.20;;;;;;6105704;23;20659;-79
2024/01/02 00:59:12;;;;;;;1.60;1.20;;;8.10;98.20;;;;;;6119734;23;20500;-79
2024/01/02 01:01:39;;;;;;;1.57;1.20;;;8.10;98.20;;;;;;6105213;23;20524;-79
2024/01/02 01:04:08;;;;;;;1.60;1.20;;;8.10;98.20;;;;;;6118778;23;20437;-78
2024/01/02 01:06:36;;;;;;;1.60;1.20;;;8.10;98.20;;;;;;6106957;23;20457;-79
2024/01/02 01:09:02;;;;;;;1.60;1.20;;;8.10;98.20;;;;;;6121239;23;20422;-79
2024/01/02 01:11:29;;;;;;;3.30;3.00;;;8.10;98.20;;;;;;6107486;23;20673;-79
2024/01/02 01:13:56;;;;;;;1.60;1.30;;;8.00;98.20;;;;;;6120131;23;20448;-79
2024/01/02 01:16:23;;;;;;;1.60;1.20;;;8.00;98.20;;;;;;6114476;23;20477;-81
2024/01/02 01:18:50;;;;;;;1.60;1.17;;;8.00;98.20;;;;;;6121751;23;20418;-79
2024/01/02 01:21:17;;;;;;;1.57;1.20;;;8.00;98.20;;;;;;6106141;23;20445;-79
2024/01/02 01:23:45;;;;;;;1.60;1.20;;;8.00;98.20;;;;;;6119544;23;20524;-80
2024/01/02 01:26:11;;;;;;;1.60;1.13;;;8.00;98.20;;;;;;6105117;23;20452;-79
2024/01/02 01:28:38;;;;;;;1.60;1.40;;;8.00;98.20;;;;;;6120812;23;20424;-79
2024/01/02 01:31:05;;;;;;;1.60;1.27;;;8.00;98.20;;;;;;6105835;23;20505;-79
2024/01/02 01:33:32;;;;;;;1.60;1.20;;;8.00;98.20;;;;;;6119382;23;20750;-79
2024/01/02 01:35:58;;;;;;;1.60;1.17;;;8.10;98.20;;;;;;6104754;23;20440;-79
2024/01/02 01:38:25;;;;;;;1.60;1.10;;;8.00;98.20;;;;;;6119863;23;20422;-79
2024/01/02 01:40:53;;;;;;;1.60;1.20;;;8.10;98.20;;;;;;6106692;23;20432;-79
2024/01/02 01:43:20;;;;;;;1.60;1.20;;;8.10;98.20;;;;;;6120058;23;20445;-79
2024/01/02 01:45:47;;;;;;;1.60;1.20;;;8.10;98.20;;;;;;6115006;23;20422;-79
2024/01/02 01:48:14;;;;;;;1.70;1.37;;;8.10;98.20;;;;;;6118486;23;20439;-79
2024/01/02 01:50:41;;;;;;;1.60;1.20;;;8.10;98.20;;;;;;6121708;23;20428;-78
2024/01/02 01:53:10;;;;;;;6.13;5.80;;;8.10;98.20;;;;;;6104287;23;20446;-78
2024/01/02 01:55:37;;;;;;;1.60;1.20;;;8.00;98.20;;;;;;6120222;23;20958;-77
2024/01/02 01:58:06;;;;;;;1.57;1.20;;;8.00;98.20;;;;;;6105616;23;20449;-77
2024/01/02 02:00:32;;;;;;;1.60;1.20;;;8.00;98.20;;;;;;6121933;23;20433;-78
2024/01/02 02:03:00;;;;;;;1.60;1.20;;;8.00;98.20;;;;;;6105839;23;20450;-78
2024/01/02 02:05:27;;;;;;;1.57;1.13;;;8.00;98.20;;;;;;6122339;23;20418;-77
2024/01/02 02:07:55;;;;;;;1.60;1.20;;;8.00;98.20;;;;;;6107330;23;20465;-79
2024/01/02 02:10:22;;;;;;;1.60;1.20;;;8.00;98.20;;;;;;6124764;23;20426;-78
2024/01/02 02:12:49;;;;;;;1.60;1.20;;;8.00;98.20;;;;;;6107565;23;20446;-78
2024/01/02 02:15:17;;;;;;;1.60;1.20;;;8.00;98.20;;;;;;6116507;23;20454;-78
2024/01/02 02:17:44;;;;;;;1.60;1.23;;;8.00;98.20;;;;;;6107465;23;20536;-78
2024/01/02 02:20:11;;;;;;;1.60;1.20;;;8.00;98.20;;;;;;6125053;23;20763;-78
2024/01/02 02:22:39;;;;;;;1.60;1.20;;;8.00;98.20;;;;;;6107416;23;20611;-78
2024/01/02 02:25:10;;;;;;;1.60;1.10;;;8.00;98.20;;;;;;6122275;23;20442;-78
2024/01/02 02:27:37;;;;;;;1.60;1.20;;;8.00;98.20;;;;;;6107521;23;20453;-77
2024/01/02 02:30:04;;;;;;;1.60;1.20;;;8.00;98.20;;;;;;6123685;23;20417;-78
2024/01/02 02:32:31;;;;;;;1.60;1.20;;;8.00;98.20;;;;;;6105898;23;20524;-77
2024/01/02 02:34:58;;;;;;;1.60;1.20;;;8.00;98.20;;;;;;6118047;23;20446;-78
2024/01/02 02:37:25;;;;;;;1.60;1.20;;;8.00;98.20;;;;;;6105127;23;20477;-78
2024/01/02 02:39:52;;;;;;;1.60;1.20;;;8.00;98.20;;;;;;6120726;23;20422;-78
2024/01/02 02:42:20;;;;;;;1.60;1.20;;;8.00;98.20;;;;;;6104621;23;20528;-76
2024/01/02 02:44:46;;;;;;;1.60;1.20;;;8.00;98.20;;;;;;6130242;23;20517;-78
2024/01/02 02:47:13;;;;;;;1.60;1.20;;;8.00;98.20;;;;;;6107745;23;20457;-78
2024/01/02 02:49:40;;;;;;;1.60;1.20;;;8.00;98.20;;;;;;6122561;23;20931;-77
2024/01/02 02:52:07;;;;;;;1.60;1.10;;;8.00;98.20;;;;;;6106376;23;20445;-77
2024/01/02 02:54:34;;;;;;;1.60;1.20;;;7.90;98.20;;;;;;6120384;23;20442;-78
2024/01/02 02:57:01;;;;;;;1.60;1.20;;;7.90;98.20;;;;;;6107253;23;20451;-77
2024/01/02 02:59:29;;;;;;;1.57;1.10;;;7.90;98.20;;;;;;6121760;23;20767;-77
2024/01/02 03:01:55;;;;;;;1.60;1.30;;;7.90;98.20;;;;;;6106544;23;20441;-76
2024/01/02 03:04:22;;;;;;;1.60;1.30;;;7.90;98.20;;;;;;6119539;23;20433;-78
2024/01/02 03:06:49;;;;;;;1.60;1.23;;;7.80;98.20;;;;;;6105744;23;20528;-76
2024/01/02 03:09:16;;;;;;;1.60;1.20;;;7.80;98.20;;;;;;6120988;23;20421;-77
2024/01/02 03:11:44;;;;;;;1.60;1.20;;;7.80;98.20;;;;;;6107157;23;20838;-77
2024/01/02 03:14:11;;;;;;;1.60;1.20;;;7.80;98.20;;;;;;6119688;23;20445;-77
2024/01/02 03:16:39;;;;;;;1.60;1.20;;;7.80;98.20;;;;;;6107231;23;20450;-77
2024/01/02 03:19:05;;;;;;;1.60;1.20;;;7.80;98.20;;;;;;6122047;23;20428;-78
2024/01/02 03:21:32;;;;;;;1.60;1.20;;;7.80;98.20;;;;;;6107950;23;20450;-78
2024/01/02 03:23:59;;;;;;;1.60;1.10;;;7.70;98.20;;;;;;6124023;23;20721;-78
2024/01/02 03:26:26;;;;;;;1.60;1.17;;;7.70;98.20;;;;;;6110883;23;20453;-77
2024/01/02 03:28:53;;;;;;;1.60;1.20;;;7.70;98.20;;;;;;6123881;23;20748;-76
2024/01/02 03:31:19;;;;;;;1.60;1.13;;;7.70;98.20;;;;;;6110587;23;20476;-78
2024/01/02 03:33:48;;;;;;;1.60;1.30;;;7.70;98.20;;;;;;6123867;23;20536;-78
2024/01/02 03:36:17;;;;;;;1.60;1.20;;;7.70;98.20;;;;;;6108016;23;20455;-78
2024/01/02 03:38:45;;;;;;;1.60;1.20;;;7.70;98.20;;;;;;6122547;23;20418;-76
2024/01/02 03:41:11;;;;;;;1.60;1.20;;;7.70;98.20;;;;;;6112048;23;20521;-78
2024/01/02 03:43:38;;;;;;;1.60;1.20;;;7.70;98.20;;;;;;6125034;23;20801;-78
2024/01/02 03:46:05;;;;;;;1.60;1.20;;;7.70;98.20;;;;;;6108277;23;20422;-77
2024/01/02 03:48:32;;;;;;;1.60;1.20;;;7.70;98.20;;;;;;6125393;23;20759;-76
2024/01/02 03:51:01;;;;;;;1.60;1.20;;;7.70;98.20;;;;;;6110244;23;20952;-78
2024/01/02 03:55:56;;;;;;;1.60;1.40;;;7.70;98.20;;;;;;6121719;23;20386;-79
2024/01/02 03:58:23;;;;;;;1.60;1.20;;;7.70;98.20;;;;;;6142101;23;20418;-78
2024/01/02 04:00:57;;;;;;;1.60;1.30;;;7.70;98.20;;;;;;6111310;23;20627;-76
2024/01/02 04:03:25;;;;;;;1.60;1.20;;;7.70;98.20;;;;;;6122242;23;20410;-76
2024/01/02 04:05:52;;;;;;;1.60;1.20;;;7.70;98.20;;;;;;6107556;23;20453;-77
2024/01/02 04:08:21;;;;;;;1.60;1.20;;;7.70;98.20;;;;;;6122341;23;20422;-79
2024/01/02 04:10:47;;;;;;;1.60;1.30;;;7.70;98.20;;;;;;6115793;23;20428;-79
2024/01/02 04:13:14;;;;;;;1.60;1.20;;;7.70;98.20;;;;;;6122359;23;20895;-78
2024/01/02 04:15:41;;;;;;;1.60;1.13;;;7.70;98.20;;;;;;6121558;23;20452;-78
2024/01/02 04:18:08;;;;;;;1.60;1.20;;;7.70;98.20;;;;;;6108892;23;20449;-78
2024/01/02 04:20:35;;;;;;;1.60;1.20;;;7.70;98.20;;;;;;6124290;23;20501;-76
2024/01/02 04:23:02;;;;;;;1.60;1.20;;;7.70;98.20;;;;;;6106169;23;20460;-79
2024/01/02 04:25:30;;;;;;;1.60;1.20;;;7.80;98.20;;;;;;6122837;23;20445;-78
2024/01/02 04:27:57;;;;;;;1.60;1.20;;;7.80;98.20;;;;;;6107435;23;20450;-77
2024/01/02 04:30:24;;;;;;;1.60;1.20;;;7.80;98.20;;;;;;6124758;23;20458;-79
2024/01/02 04:32:51;;;;;;;1.60;1.20;;;7.80;98.20;;;;;;6109422;23;20445;-79
2024/01/02 04:35:18;;;;;;;1.60;1.20;;;7.80;98.20;;;;;;6132422;23;20451;-78
2024/01/02 04:37:45;;;;;;;1.60;1.20;;;7.80;98.20;;;;;;6107939;23;20449;-79
2024/01/02 04:40:13;;;;;;;1.60;1.20;;;7.80;98.20;;;;;;6124241;23;20425;-77
2024/01/02 04:42:41;;;;;;;1.60;1.20;;;7.80;98.20;;;;;;6108056;23;20450;-77
2024/01/02 04:45:09;;;;;;;1.60;1.20;;;7.80;98.20;;;;;;6124536;23;20449;-75
2024/01/02 04:47:36;;;;;;;1.60;1.23;;;7.80;98.20;;;;;;6108961;23;20476;-78
2024/01/02 04:50:04;;;;;;;1.60;1.30;;;7.80;98.20;;;;;;6125252;23;20469;-78
2024/01/02 04:52:31;;;;;;;1.60;1.20;;;7.90;98.20;;;;;;6111272;23;20450;-78
2024/01/02 04:55:00;;;;;;;1.60;1.20;;;7.90;98.20;;;;;;6122973;23;20462;-74
2024/01/02 04:57:27;;;;;;;1.60;1.20;;;7.90;98.20;;;;;;6108348;23;20456;-78
2024/01/02 04:59:55;;;;;;;1.57;1.17;;;7.90;98.20;;;;;;6132723;23;20445;-77
2024/01/02 05:02:23;;;;;;;1.63;1.40;;;7.90;98.20;;;;;;6108627;23;20806;-79
2024/01/02 05:04:52;;;;;;;1.60;1.30;;;8.00;98.20;;;;;;6123645;23;20505;-80
2024/01/02 05:07:19;;;;;;;1.60;1.33;;;8.00;98.20;;;;;;6110907;23;20524;-80
2024/01/02 05:09:46;;;;;;;1.60;1.20;;;8.00;98.20;;;;;;6123899;23;20417;-76
2024/01/02 05:12:17;;;;;;;1.60;1.20;;;8.00;98.20;;;;;;6109168;23;20450;-79
2024/01/02 05:14:45;;;;;;;1.60;1.30;;;8.10;98.20;;;;;;6122544;23;20525;-76
2024/01/02 05:17:13;;;;;;;1.60;1.20;;;8.10;98.20;;;;;;6108483;23;20473;-79
2024/01/02 05:19:40;;;;;;;1.70;1.30;;;8.10;98.20;;;;;;6124097;23;20449;-79
2024/01/02 05:22:07;;;;;;;1.60;1.30;;;8.20;98.20;;;;;;6108994;23;20847;-79
2024/01/02 05:24:34;;;;;;;1.60;1.20;;;8.20;98.20;;;;;;6121951;23;20437;-79
2024/01/02 05:27:02;;;;;;;1.60;1.13;;;8.30;98.20;;;;;;6109098;23;20450;-80
2024/01/02 05:29:29;;;;;;;1.60;1.20;;;8.30;98.20;;;;;;6124093;23;20452;-80
2024/01/02 05:31:56;;;;;;;1.60;1.20;;;8.30;98.20;;;;;;6109803;23;20456;-79
2024/01/02 05:34:26;;;;;;;1.60;1.20;;;8.40;98.20;;;;;;6123206;23;20454;-80
2024/01/02 05:36:53;;;;;;;1.60;1.30;;;8.40;98.20;;;;;;6114518;23;20469;-80
2024/01/02 05:39:23;;;;;;;1.60;1.20;;;8.40;98.20;;;;;;6125037;23;21017;-80
2024/01/02 05:41:50;;;;;;;1.60;1.20;;;8.40;98.20;;;;;;6111979;23;20450;-81
2024/01/02 05:44:17;;;;;;;1.60;1.20;;;8.50;98.20;;;;;;6121987;23;20442;-79
2024/01/02 05:46:44;;;;;;;1.60;1.20;;;8.50;98.20;;;;;;6109025;23;20450;-79
2024/01/02 05:49:11;;;;;;;1.60;1.20;;;8.60;98.20;;;;;;6123334;23;20509;-79
2024/01/02 05:51:39;;;;;;;1.60;1.20;;;8.60;98.20;;;;;;6115781;23;20803;-79
2024/01/02 05:54:10;;;;;;;1.60;1.20;;;8.60;98.20;;;;;;6122647;23;20954;-81
2024/01/02 05:56:39;;;;;;;1.60;1.10;;;8.70;98.20;;;;;;6110234;23;20449;-81
2024/01/02 05:59:06;;;;;;;1.60;1.20;;;8.70;98.20;;;;;;6133627;23;20464;-80
2024/01/02 06:01:44;;;;;;;1.60;1.20;;;8.70;98.20;;;;;;6110245;23;21041;-82
2024/01/02 06:04:11;;;;;;;1.60;1.20;;;8.70;98.20;;;;;;6131827;23;20560;-81
2024/01/02 06:06:42;;;;;;;1.60;1.17;;;8.70;98.20;;;;;;6116800;23;20453;-79
2024/01/02 06:09:08;;;;;;;2.17;1.97;;;8.80;98.20;;;;;;6133163;23;20562;-81
2024/01/02 06:11:35;;;;;;;1.60;1.20;;;9.00;98.20;;;;;;6116843;23;20844;-81
2024/01/02 06:14:08;;;;;;;1.60;1.10;;;9.10;98.20;;;;;;6132562;23;20456;-80
2024/01/02 06:16:36;;;;;;;1.60;1.20;;;9.30;98.20;;;;;;6109484;23;20532;-81
2024/01/02 06:19:03;;;;;;;1.60;1.10;;;9.50;98.20;;;;;;6132370;23;20428;-80
2024/01/02 06:21:30;;;;;;;1.60;1.20;;;9.60;98.20;;;;;;6111376;23;20450;-81
2024/01/02 06:23:58;;;;;;;1.60;1.20;;;9.80;98.20;;;;;;6125218;23;20462;-81
2024/01/02 06:26:29;;;;;;;1.60;1.10;;;9.90;98.20;;;;;;6111862;23;20453;-80
2024/01/02 06:29:06;;;;;;;;;;;;;;;;;;;;;
2024/01/02 06:32:09;;;;;;;1.60;1.20;;;10.00;98.20;;;;;;6119528;23;20456;-81
2024/01/02 06:35:21;;;;;;;1.60;1.20;;;10.10;98.20;;;;;;6135631;23;20452;-80
2024/01/02 06:37:51;;;;;;;1.60;1.20;;;10.20;98.20;;;;;;6113465;23;20891;-81
2024/01/02 06:40:28;;;;;;;1.60;1.10;;;10.30;98.20;;;;;;6136880;23;20915;-81
2024/01/02 06:42:59;;;;;;;1.60;1.10;;;10.40;98.20;;;;;;6111334;23;20449;-82
2024/01/02 06:45:28;;;;;;;1.60;1.10;;;10.40;98.20;;;;;;6136514;23;20477;-82
2024/01/02 06:47:58;;;;;;;1.60;1.10;;;10.50;98.20;;;;;;6112560;23;20449;-80
2024/01/02 06:53:24;;;;;;;1.60;1.10;;;10.60;98.20;;;;;;6073755;23;20525;-81
2024/01/02 06:56:22;;;;;;;1.60;1.10;;;10.70;98.20;;;;;;6113435;23;20410;-82
2024/01/02 06:59:06;;;;;;;1.60;1.20;;;10.70;98.20;;;;;;6125367;23;20391;-80
2024/01/02 07:01:34;;;;;;;1.60;1.10;;;10.80;98.20;;;;;;6095002;23;20469;-82
2024/01/02 07:04:03;;;;;;;1.60;1.20;;;10.90;98.20;;;;;;6121423;23;20462;-80
2024/01/02 07:06:44;;;;;;;1.60;1.10;;;10.90;98.20;;;;;;6096745;23;20442;-82
2024/01/02 07:09:14;;;;;;;1.60;1.00;;;10.90;98.20;;;;;;6117222;23;20423;-82
2024/01/02 07:11:51;;;;;;;1.60;1.10;;;11.00;98.20;;;;;;6098618;23;20476;-81
2024/01/02 07:14:18;;;;;;;1.57;1.00;;;11.00;98.20;;;;;;6086231;23;20511;-81
2024/01/02 07:16:51;;;;;;;1.60;1.13;;;11.00;98.20;;;;;;6063033;23;20470;-83
2024/01/02 07:19:46;;;;;;;1.60;1.10;;;11.10;98.20;;;;;;6087067;23;21031;-81
2024/01/02 07:22:18;;;;;;;1.60;1.10;;;11.10;98.20;;;;;;6071981;23;20470;-81
2024/01/02 07:24:47;;;;;;;1.60;1.10;;;11.10;98.20;;;;;;6071128;23;20963;-81
2024/01/02 07:27:17;;;;;;;1.53;1.00;;;11.10;98.20;;;;;;6070456;23;20451;-81
2024/01/02 07:29:44;;;;;;;1.60;1.03;;;11.20;98.20;;;;;;6080757;23;20428;-81
2024/01/02 07:32:14;;;;;;;1.60;1.10;;;11.20;98.20;;;;;;6071147;23;20490;-80
2024/01/02 07:34:44;;;;;;;1.60;1.10;;;11.20;98.20;;;;;;6070897;23;20860;-79
2024/01/02 07:37:16;;;;;;;1.60;1.10;;;11.30;98.20;;;;;;6070355;23;20450;-81
2024/01/02 07:39:54;;;;;;;1.60;1.13;;;11.30;98.20;;;;;;6083318;23;20890;-81
2024/01/02 07:42:31;;;;;;;1.60;1.07;;;11.30;98.20;;;;;;6073504;23;20791;-81
2024/01/02 07:45:01;;;;;;;1.60;1.10;;;11.30;98.20;;;;;;6064518;23;20966;-80
2024/01/02 07:47:28;;;;;;;1.60;1.00;;;11.40;98.20;;;;;;6050510;23;20461;-79
2024/01/02 07:52:55;;;;;;;1.60;1.10;;;11.40;98.20;;;;;;6068239;23;21498;-82
2024/01/02 07:55:35;;;;;;;1.60;1.10;;;11.50;98.20;;;;;;6068759;23;20466;-82
2024/01/02 07:58:10;;;;;;;1.60;1.10;;;11.50;98.20;;;;;;6071390;23;20461;-82
2024/01/02 08:00:39;;;;;;;1.60;1.10;;;11.50;98.20;;;;;;6072968;23;20446;-81
2024/01/02 08:05:48;;;;;;;1.60;1.00;;;11.50;98.20;;;;;;6058253;23;20588;-79
2024/01/02 08:08:15;;;;;;;1.53;1.10;;;11.60;98.20;;;;;;6059813;23;20450;-82
2024/01/02 08:10:41;;;;;;;1.60;1.10;;;11.60;98.20;;;;;;6062420;23;20480;-82
2024/01/02 08:13:19;;;;;;;1.60;1.10;;;11.60;98.20;;;;;;6046760;23;20462;-81
2024/01/02 08:15:52;;;;;;;1.57;1.00;;;11.60;98.20;;;;;;6033967;23;20416;-82
2024/01/02 08:18:19;;;;;;;1.60;1.00;;;11.50;98.20;;;;;;6022831;23;20524;-84
2024/01/02 08:20:46;;;;;;;1.60;1.10;;;11.60;98.20;;;;;;6064641;23;20430;-80
2024/01/02 08:23:13;;;;;;;1.60;1.10;;;11.50;98.20;;;;;;6023049;23;20436;-81
2024/01/02 08:25:40;;;;;;;1.57;1.07;;;11.50;98.20;;;;;;6061831;23;20977;-80
2024/01/02 08:28:19;;;;;;;1.57;1.00;;;11.60;98.20;;;;;;6046652;23;20451;-80
2024/01/02 08:30:46;;;;;;;1.60;1.10;;;11.60;98.20;;;;;;6073666;23;20932;-82
2024/01/02 08:33:13;;;;;;;1.60;1.07;;;11.60;98.20;;;;;;6021761;23;20499;-80
2024/01/02 08:35:40;;;;;;;1.60;1.10;;;11.60;98.20;;;;;;6070163;23;20443;-80
2024/01/02 08:38:06;;;;;;;1.60;1.10;;;11.60;98.20;;;;;;6046904;23;20450;-82
2024/01/02 08:40:43;;;;;;;1.60;1.10;;;11.60;98.20;;;;;;6064464;23;20640;-82
2024/01/02 08:43:10;;;;;;;1.60;1.10;;;11.60;98.20;;;;;;6046125;23;20451;-80
2024/01/02 08:45:38;;;;;;;1.60;1.10;;;11.70;98.20;;;;;;6063743;23;20503;-81
2024/01/02 08:48:07;;;;;;;1.60;1.10;;;11.60;98.20;;;;;;6047285;23;20457;-83
2024/01/02 08:50:36;;;;;;;1.60;1.13;;;11.70;98.20;;;;;;6073469;23;20502;-83
2024/01/02 08:53:03;;;;;;;1.60;1.07;;;11.70;98.20;;;;;;6048677;23;20458;-80
2024/01/02 08:55:29;;;;;;;1.57;1.00;;;11.70;98.20;;;;;;6061200;23;20496;-83
2024/01/02 08:57:56;;;;;;;1.60;1.03;;;11.70;98.20;;;;;;6045936;23;20486;-82
2024/01/02 09:00:23;;;;;;;1.60;1.10;;;11.70;98.20;;;;;;6062343;23;20451;-80
2024/01/02 09:03:12;;;;;;;1.60;1.10;;;11.70;98.20;;;;;;6047160;23;20558;-82
2024/01/02 09:06:12;;;;;;;1.60;1.00;;;11.70;98.20;;;;;;6071725;23;20451;-81
2024/01/02 09:08:39;;;;;;;1.60;1.00;;;11.70;98.20;;;;;;6046020;23;20865;-82
2024/01/02 09:11:05;;;;;;;1.57;1.00;;;11.80;98.20;;;;;;6052154;23;20419;-81
2024/01/02 09:16:30;;;;;;;1.60;1.00;;;11.80;98.20;;;;;;6042874;23;20446;-82
2024/01/02 09:18:58;;;;;;;1.60;1.00;;;11.80;98.20;;;;;;6077675;23;20407;-80
2024/01/02 09:21:25;;;;;;;1.60;1.10;;;11.80;98.20;;;;;;6056281;23;21181;-80
2024/01/02 09:23:52;;;;;;;1.60;1.10;;;11.80;98.20;;;;;;6089529;23;20680;-81
2024/01/02 09:26:23;;;;;;;1.60;1.10;;;11.80;98.20;;;;;;6051385;23;20437;-79
2024/01/02 09:28:52;;;;;;;1.60;1.00;;;11.90;98.20;;;;;;6079358;23;20415;-82
2024/01/02 09:31:30;;;;;;;;;;;;;;;;;;;;;
2024/01/02 09:34:01;;;;;;;1.60;1.00;;;11.90;98.20;;;;;;6086398;23;20458;-82
2024/01/02 09:36:45;;;;;;;1.60;1.20;;;11.90;98.20;;;;;;6039337;23;20448;-82
2024/01/02 09:39:14;;;;;;;1.60;1.10;;;11.90;98.20;;;;;;6039434;23;20797;-82
2024/01/02 09:42:15;;;;;;;1.60;1.10;;;11.90;98.20;;;;;;6058135;23;20525;-81
2024/01/02 09:45:16;;;;;;;1.60;1.10;;;11.90;98.20;;;;;;6079294;23;20498;-80
2024/01/02 09:48:02;;;;;;;1.60;1.00;;;12.00;98.20;;;;;;6071192;23;20490;-82
2024/01/02 09:50:48;;;;;;;1.60;1.10;;;12.00;98.20;;;;;;6061794;23;20484;-81
2024/01/02 09:53:34;;;;;;;1.60;1.10;;;12.00;98.20;;;;;;6045753;23;20927;-82
2024/01/02 09:56:10;;;;;;;1.60;1.10;;;12.00;98.20;;;;;;6050921;23;20479;-78
2024/01/02 09:58:48;;;;;;;1.60;1.03;;;12.10;98.20;;;;;;6080612;23;20529;-80
2024/01/02 10:01:23;;;;;;;1.60;1.00;;;12.10;98.20;;;;;;6059559;23;20533;-81
2024/01/02 10:04:20;;;;;;;1.60;1.00;;;12.10;98.20;;;;;;6085808;23;20479;-80
2024/01/02 10:07:22;;;;;;;1.60;1.00;;;12.20;98.20;;;;;;6067577;23;20915;-82
2024/01/02 10:10:03;;;;;;;1.60;1.00;;;12.20;98.20;;;;;;6077355;23;20466;-82
2024/01/02 10:12:38;;;;;;;1.60;1.07;;;12.20;98.20;;;;;;6079694;23;20450;-79
2024/01/02 10:15:13;;;;;;;1.60;1.00;;;12.20;98.20;;;;;;6080752;23;20941;-81
2024/01/02 10:17:50;;;;;;;1.60;1.00;;;12.30;98.20;;;;;;6078271;23;20509;-82
2024/01/02 10:20:25;;;;;;;1.60;1.00;;;12.30;98.20;;;;;;6085327;23;20419;-83
2024/01/02 10:23:08;;;;;;;1.60;1.00;;;12.30;98.20;;;;;;6084523;23;20482;-81
2024/01/02 10:25:36;;;;;;;1.60;1.00;;;12.30;98.20;;;;;;6071695;23;20450;-84
2024/01/02 10:28:10;;;;;;;1.60;1.00;;;12.40;98.20;;;;;;6081050;23;20882;-78
2024/01/02 10:30:55;;;;;;;1.60;1.00;;;12.40;98.20;;;;;;6071734;23;20524;-81
2024/01/02 10:33:31;;;;;;;1.60;1.10;;;12.40;98.20;;;;;;6047688;23;20976;-83
2024/01/02 10:36:03;;;;;;;1.60;1.00;;;12.50;98.20;;;;;;6060772;23;20511;-81
2024/01/02 10:39:01;;;;;;;1.60;1.10;;;12.50;98.20;;;;;;6086178;23;20408;-83
2024/01/02 10:41:45;;;;;;;1.60;1.00;;;12.50;98.20;;;;;;6059184;23;20950;-84
2024/01/02 10:44:21;;;;;;;1.60;1.00;;;12.60;98.20;;;;;;6088316;23;20545;-83
2024/01/02 10:46:56;;;;;;;1.60;1.00;;;12.60;98.20;;;;;;6069010;23;20485;-80
2024/01/02 10:49:29;;;;;;;1.60;1.10;;;12.60;98.20;;;;;;6086326;23;21140;-83
2024/01/02 10:52:02;;;;;;;1.60;1.10;;;12.60;98.20;;;;;;6073849;23;21391;-83
2024/01/02 10:54:36;;;;;;;1.67;1.27;;;12.60;98.20;;;;;;6088621;23;20650;-84
2024/01/02 10:57:07;;;;;;;1.60;1.00;;;12.60;98.20;;;;;;6068548;23;20461;-83
2024/01/02 10:59:55;;;;;;;1.60;1.00;;;12.60;98.20;;;;;;6079725;23;20913;-83
2024/01/02 11:02:36;;;;;;;1.60;1.00;;;12.60;98.20;;;;;;6075648;23;20879;-82
2024/01/02 11:05:17;;;;;;;1.60;1.10;;;12.60;98.20;;;;;;6082834;23;20451;-83
2024/01/02 11:07:50;;;;;;;1.60;1.00;;;12.60;98.20;;;;;;6078664;23;20493;-83
2024/01/02 11:10:24;;;;;;;1.60;1.00;;;12.50;98.20;;;;;;6076528;23;20478;-84
2024/01/02 11:13:01;;;;;;;1.60;1.10;;;12.50;98.20;;;;;;6083519;23;20449;-83
2024/01/02 11:15:36;;;;;;;1.60;1.00;;;12.50;98.20;;;;;;6080919;23;20458;-83
2024/01/02 11:18:22;;;;;;;1.60;1.10;;;12.40;98.20;;;;;;6075768;23;20510;-82
2024/01/02 11:20:54;;;;;;;1.60;1.00;;;12.40;98.20;;;;;;6048924;23;20479;-80
2024/01/02 11:23:30;;;;;;;1.60;1.00;;;12.30;98.20;;;;;;6092510;23;20451;-78
2024/01/02 11:26:04;;;;;;;1.60;1.10;;;12.20;98.20;;;;;;6047098;23;20486;-81
2024/01/02 11:28:33;;;;;;;1.60;1.10;;;12.10;98.20;;;;;;6080295;23;21060;-81
2024/01/02 11:31:07;;;;;;;1.60;1.00;;;12.10;98.20;;;;;;6058217;23;20664;-82
2024/01/02 11:33:52;;;;;;;1.60;1.10;;;12.00;98.20;;;;;;6080432;23;20433;-79
2024/01/02 11:39:55;;;;;;;1.60;1.00;;;11.90;98.20;;;;;;6022300;23;20429;-81
2024/01/02 11:42:33;;;;;;;1.50;1.00;;;11.80;98.20;;;;;;6067897;23;20454;-78
2024/01/02 11:45:08;;;;;;;1.60;1.10;;;11.70;98.20;;;;;;6063965;23;20665;-80
2024/01/02 11:47:42;;;;;;;1.60;1.10;;;11.70;98.20;;;;;;6069593;23;20454;-80
2024/01/02 11:50:10;;;;;;;1.60;1.20;;;11.70;98.20;;;;;;6071074;23;20781;-80
2024/01/02 11:52:58;;;;;;;1.60;1.00;;;11.60;98.20;;;;;;6067403;23;20537;-81
2024/01/02 11:55:39;;;;;;;1.70;1.40;;;11.60;98.20;;;;;;6060550;23;20463;-80
2024/01/02 11:58:13;;;;;;;1.60;1.03;;;11.60;98.20;;;;;;6069537;23;20947;-80
2024/01/02 12:01:16;;;;;;;1.60;1.10;;;11.50;98.20;;;;;;6070650;23;20458;-82
2024/01/02 12:03:55;;;;;;;1.60;1.10;;;11.40;98.20;;;;;;5957173;23;20560;-79
2024/01/02 12:06:37;;;;;;;1.60;1.10;;;11.40;98.20;;;;;;5955742;23;20461;-79
2024/01/02 12:09:10;;;;;;;1.60;1.00;;;11.40;98.20;;;;;;6032036;23;20424;-81
2024/01/02 12:11:40;;;;;;;1.60;1.10;;;11.30;98.20;;;;;;6055028;23;20446;-80
2024/01/02 12:14:24;;;;;;;1.60;1.10;;;11.30;98.20;;;;;;6071319;23;20543;-78
2024/01/02 12:16:53;;;;;;;1.60;1.10;;;11.20;98.20;;;;;;6055565;23;20834;-78
2024/01/02 12:19:24;;;;;;;1.60;1.20;;;11.20;98.20;;;;;;6068657;23;20431;-79
2024/01/02 12:21:55;;;;;;;1.60;1.10;;;11.20;98.20;;;;;;6067456;23;20477;-78
2024/01/02 12:24:22;;;;;;;1.60;1.10;;;11.20;98.20;;;;;;6070279;23;20446;-80
2024/01/02 12:26:52;;;;;;;1.60;1.00;;;11.10;98.20;;;;;;6055238;23;21003;-80
2024/01/02 12:29:38;;;;;;;1.60;1.10;;;11.10;98.20;;;;;;6069403;23;20423;-77
2024/01/02 12:32:13;;;;;;;1.60;1.10;;;11.00;98.20;;;;;;6059873;23;20460;-80
2024/01/02 12:34:48;;;;;;;1.60;1.10;;;11.00;98.20;;;;;;6065915;23;20676;-80
2024/01/02 12:37:24;;;;;;;1.60;1.10;;;11.00;98.20;;;;;;6061429;23;20518;-78
2024/01/02 12:39:53;;;;;;;1.60;1.10;;;11.00;98.20;;;;;;6063979;23;20412;-80
2024/01/02 12:42:25;;;;;;;1.60;1.10;;;10.90;98.20;;;;;;6066276;23;20490;-80
2024/01/02 12:45:02;;;;;;;1.60;1.10;;;10.90;98.20;;;;;;6063561;23;20440;-80
2024/01/02 12:47:33;;;;;;;1.57;1.10;;;10.90;98.20;;;;;;6062020;23;20509;-80
2024/01/02 12:50:03;;;;;;;1.60;1.10;;;10.80;98.20;;;;;;6059290;23;20433;-79
2024/01/02 12:52:36;;;;;;;1.60;1.00;;;10.70;98.20;;;;;;6059957;23;20451;-78
2024/01/02 12:55:06;;;;;;;1.60;1.10;;;10.70;98.20;;;;;;6056761;23;20455;-77
2024/01/02 12:57:35;;;;;;;1.60;1.10;;;10.70;98.20;;;;;;6060232;23;20455;-80
2024/01/02 13:00:05;;;;;;;1.60;1.10;;;10.70;98.20;;;;;;6058189;23;20423;-78
2024/01/02 13:02:36;;;;;;;1.60;1.10;;;10.60;98.20;;;;;;6058962;23;20516;-78
2024/01/02 13:05:04;;;;;;;1.60;1.10;;;10.60;98.20;;;;;;6010793;23;1114055;-78
2024/01/02 13:07:36;;;;;;;1.60;1.10;;;10.60;98.20;;;;;;6060398;23;20218;-79
2024/01/02 13:10:04;;;;;;;1.60;1.10;;;10.50;98.20;;;;;;6059720;23;20979;-78
2024/01/02 13:12:31;;;;;;;1.60;1.10;;;10.50;98.20;;;;;;6061457;23;20541;-76
2024/01/02 13:14:59;;;;;;;1.60;1.10;;;10.50;98.20;;;;;;6060937;23;20455;-80
2024/01/02 13:17:28;;;;;;;1.60;1.10;;;10.50;98.20;;;;;;6060698;23;20455;-76
2024/01/02 13:19:55;;;;;;;1.60;1.10;;;10.50;98.20;;;;;;6070977;23;20535;-76
2024/01/02 13:22:22;;;;;;;1.60;1.10;;;10.40;98.20;;;;;;6061187;23;20456;-78
2024/01/02 13:24:50;;;;;;;1.57;1.00;;;10.40;98.20;;;;;;6061249;23;20447;-77
2024/01/02 13:27:24;;;;;;;1.60;1.10;;;10.40;98.20;;;;;;6057255;23;20459;-75
2024/01/02 13:29:53;;;;;;;1.60;1.10;;;10.40;98.20;;;;;;6062073;23;20408;-78